createdAt,value
2019-02-04T00:00:37.449Z,102095.03
2019-02-04T00:03:07.713Z,102098.19
2019-02-04T00:05:37.571Z,102100.71
2019-02-04T00:08:07.488Z,102090.80
2019-02-04T00:10:37.490Z,102096.02
2019-02-04T00:13:08.466Z,102095.91
2019-02-04T00:15:38.411Z,102088.13
2019-02-04T00:18:09.314Z,102086.77
2019-02-04T00:20:39.197Z,102089.50
2019-02-04T00:23:09.235Z,102094.67
2019-02-04T00:25:39.567Z,102095.49
2019-02-04T00:28:09.537Z,102096.41
2019-02-04T00:30:40.293Z,102099.41
2019-02-04T00:33:10.370Z,102095.81
2019-02-04T00:35:40.517Z,102104.04
2019-02-04T00:38:24.928Z,102106.66
2019-02-04T00:40:54.867Z,102107.95
2019-02-04T00:43:27.709Z,102110.03
2019-02-04T00:45:57.535Z,102112.25
2019-02-04T00:48:27.509Z,102121.93
2019-02-04T00:50:57.489Z,102116.22
2019-02-04T00:53:27.558Z,102119.23
2019-02-04T00:55:57.597Z,102117.53
2019-02-04T00:58:27.640Z,102112.30
2019-02-04T01:00:57.661Z,102114.72
2019-02-04T01:03:27.983Z,102125.16
2019-02-04T01:05:58.161Z,102123.34
2019-02-04T01:08:28.201Z,102118.52
2019-02-04T01:10:58.979Z,102122.48
2019-02-04T01:13:28.971Z,102134.95
2019-02-04T01:15:59.007Z,102132.71
2019-02-04T01:18:28.956Z,102133.05
2019-02-04T01:20:58.949Z,102143.04
2019-02-04T01:23:28.839Z,102143.59
2019-02-04T01:25:58.655Z,102139.45
2019-02-04T01:28:28.620Z,102138.97
2019-02-04T01:30:58.573Z,102148.09
2019-02-04T01:33:28.487Z,102155.21
2019-02-04T01:35:58.386Z,102154.02
2019-02-04T01:38:28.291Z,102157.18
2019-02-04T01:40:58.332Z,102164.41
2019-02-04T01:43:28.478Z,102167.14
2019-02-04T01:46:00.851Z,102159.77
2019-02-04T01:48:30.438Z,102164.92
2019-02-04T01:51:00.350Z,102164.02
2019-02-04T01:53:31.106Z,102167.27
2019-02-04T01:56:01.098Z,102177.48
2019-02-04T01:58:36.264Z,102175.76
2019-02-04T02:01:06.277Z,102178.52
2019-02-04T02:03:37.859Z,102184.77
2019-02-04T02:06:07.877Z,102181.28
2019-02-04T02:08:37.836Z,102180.92
2019-02-04T02:11:07.787Z,102192.17
2019-02-04T02:13:37.668Z,102193.84
2019-02-04T02:16:07.932Z,102199.06
2019-02-04T02:18:37.800Z,102197.21
2019-02-04T02:21:08.678Z,102197.97
2019-02-04T02:23:39.213Z,102202.31
2019-02-04T02:26:11.637Z,102198.33
2019-02-04T02:28:41.991Z,102199.03
2019-02-04T02:31:11.966Z,102202.25
2019-02-04T02:33:42.232Z,102203.19
2019-02-04T02:36:12.223Z,102210.20
2019-02-04T02:38:42.402Z,102212.05
2019-02-04T02:41:12.363Z,102210.94
2019-02-04T02:43:43.122Z,102204.26
2019-02-04T02:46:13.036Z,102219.65
2019-02-04T02:48:42.977Z,102208.96
2019-02-04T02:51:12.865Z,102209.36
2019-02-04T02:53:43.876Z,102223.63
2019-02-04T02:56:13.816Z,102223.14
2019-02-04T02:58:43.787Z,102222.44
2019-02-04T03:01:13.664Z,102224.77
2019-02-04T03:03:43.750Z,102230.62
2019-02-04T03:06:13.620Z,102230.12
2019-02-04T03:08:43.452Z,102227.68
2019-02-04T03:11:13.371Z,102224.91
2019-02-04T03:13:43.313Z,102227.63
2019-02-04T03:16:13.516Z,102225.17
2019-02-04T03:18:43.426Z,102222.02
2019-02-04T03:21:13.337Z,102223.42
2019-02-04T03:23:43.238Z,102228.78
2019-02-04T03:26:13.195Z,102223.14
2019-02-04T03:28:43.351Z,102224.78
2019-02-04T03:31:13.624Z,102220.26
2019-02-04T03:33:43.497Z,102224.78
2019-02-04T03:36:13.487Z,102225.50
2019-02-04T03:38:43.495Z,102220.68
2019-02-04T03:41:14.084Z,102217.91
2019-02-04T03:43:44.180Z,102218.58
2019-02-04T03:46:14.121Z,102226.41
2019-02-04T03:48:44.074Z,102231.98
2019-02-04T03:51:13.970Z,102220.59
2019-02-04T03:53:43.883Z,102219.52
2019-02-04T03:56:13.799Z,102230.45
2019-02-04T03:58:50.587Z,102234.38
2019-02-04T04:01:25.179Z,102230.12
2019-02-04T04:03:55.114Z,102231.59
2019-02-04T04:06:25.371Z,102237.37
2019-02-04T04:08:57.514Z,102244.02
2019-02-04T04:11:29.169Z,102233.23
2019-02-04T04:13:59.215Z,102235.64
2019-02-04T04:16:31.227Z,102236.66
2019-02-04T04:19:01.200Z,102233.13
2019-02-04T04:21:31.656Z,102235.95
2019-02-04T04:24:02.950Z,102230.35
2019-02-04T04:26:35.623Z,102224.53
2019-02-04T04:29:12.599Z,102234.26
2019-02-04T04:31:46.807Z,102234.79
2019-02-04T04:34:16.812Z,102236.83
2019-02-04T04:36:46.617Z,102230.03
2019-02-04T04:39:17.761Z,102230.42
2019-02-04T04:41:47.693Z,102232.25
2019-02-04T04:44:19.376Z,102236.92
2019-02-04T04:46:52.779Z,102234.13
2019-02-04T04:49:22.674Z,102232.95
2019-02-04T04:51:52.579Z,102233.37
2019-02-04T04:54:26.999Z,102236.70
2019-02-04T04:56:58.525Z,102242.38
2019-02-04T04:59:34.244Z,102244.30
2019-02-04T05:02:04.390Z,102243.78
2019-02-04T05:04:34.421Z,102240.82
2019-02-04T05:07:04.377Z,102241.25
2019-02-04T05:09:34.542Z,102239.16
2019-02-04T05:12:04.740Z,102245.61
2019-02-04T05:14:35.217Z,102245.75
2019-02-04T05:17:10.172Z,102243.15
2019-02-04T05:19:40.214Z,102244.55
2019-02-04T05:22:10.564Z,102248.30
2019-02-04T05:24:40.582Z,102249.16
2019-02-04T05:27:10.521Z,102247.63
2019-02-04T05:29:43.658Z,102245.99
2019-02-04T05:32:16.062Z,102254.64
2019-02-04T05:34:48.586Z,102253.89
2019-02-04T05:37:18.652Z,102256.27
2019-02-04T05:39:48.689Z,102257.50
2019-02-04T05:42:20.549Z,102256.40
2019-02-04T05:44:50.252Z,102255.83
2019-02-04T05:47:25.076Z,102253.70
2019-02-04T05:49:58.760Z,102249.24
2019-02-04T05:52:28.635Z,102249.22
2019-02-04T05:54:58.604Z,102252.41
2019-02-04T05:57:28.486Z,102247.18
2019-02-04T05:59:58.690Z,102242.38
2019-02-04T06:02:28.675Z,102253.95
2019-02-04T06:04:58.586Z,102243.02
2019-02-04T06:07:28.510Z,102239.23
2019-02-04T06:09:58.478Z,102240.64
2019-02-04T06:12:28.365Z,102243.94
2019-02-04T06:14:58.305Z,102247.75
2019-02-04T06:17:28.264Z,102246.13
2019-02-04T06:19:58.422Z,102244.70
2019-02-04T06:22:28.762Z,102246.39
2019-02-04T06:24:58.802Z,102247.02
2019-02-04T06:27:29.152Z,102250.59
2019-02-04T06:29:59.272Z,102255.45
2019-02-04T06:32:30.346Z,102258.81
2019-02-04T06:35:00.436Z,102262.11
2019-02-04T06:37:30.448Z,102265.83
2019-02-04T06:40:00.443Z,102271.92
2019-02-04T06:42:30.354Z,102278.81
2019-02-04T06:45:00.317Z,102282.04
2019-02-04T06:47:30.185Z,102286.51
2019-02-04T06:50:00.275Z,102285.39
2019-02-04T06:52:30.257Z,102287.58
2019-02-04T06:55:00.349Z,102283.47
2019-02-04T06:57:30.429Z,102288.91
2019-02-04T07:00:00.463Z,102283.52
2019-02-04T07:02:30.387Z,102286.41
2019-02-04T07:05:00.363Z,102291.64
2019-02-04T07:07:30.272Z,102295.19
2019-02-04T07:10:00.315Z,102300.49
2019-02-04T07:12:30.255Z,102300.34
2019-02-04T07:15:00.279Z,102297.87
2019-02-04T07:17:30.167Z,102296.12
2019-02-04T07:20:00.314Z,102293.31
2019-02-04T07:22:30.679Z,102295.89
2019-02-04T07:25:00.861Z,102290.58
2019-02-04T07:27:30.897Z,102294.34
2019-02-04T07:30:01.037Z,102287.05
2019-02-04T07:32:31.115Z,102282.88
2019-02-04T07:35:01.098Z,102288.34
2019-02-04T07:37:31.419Z,102287.03
2019-02-04T07:40:01.611Z,102282.67
2019-02-04T07:42:32.016Z,102286.70
2019-02-04T07:45:02.054Z,102292.05
2019-02-04T07:47:33.103Z,102293.07
2019-02-04T07:50:03.335Z,102294.55
2019-02-04T07:52:33.138Z,102293.34
2019-02-04T07:55:03.173Z,102290.73
2019-02-04T07:57:33.039Z,102288.92
2019-02-04T08:00:03.063Z,102293.89
2019-02-04T08:02:33.115Z,102293.52
2019-02-04T08:05:03.410Z,102295.97
2019-02-04T08:07:33.351Z,102288.77
2019-02-04T08:10:03.271Z,102282.03
2019-02-04T08:12:33.127Z,102282.52
2019-02-04T08:15:03.011Z,102286.54
2019-02-04T08:17:33.105Z,102276.85
2019-02-04T08:20:03.164Z,102275.97
2019-02-04T08:22:33.248Z,102276.80
2019-02-04T08:25:03.088Z,102273.42
2019-02-04T08:27:33.033Z,102271.34
2019-02-04T08:30:05.727Z,102275.74
2019-02-04T08:32:35.955Z,102274.78
2019-02-04T08:35:06.047Z,102273.48
2019-02-04T08:37:36.099Z,102271.67
2019-02-04T08:40:06.546Z,102269.34
2019-02-04T08:42:36.587Z,102268.28
2019-02-04T08:45:06.968Z,102268.52
2019-02-04T08:47:37.009Z,102265.89
2019-02-04T08:50:08.151Z,102256.95
2019-02-04T08:52:38.090Z,102254.82
2019-02-04T08:55:08.857Z,102254.92
2019-02-04T08:57:38.904Z,102250.17
2019-02-04T09:00:10.641Z,102245.82
2019-02-04T09:02:41.758Z,102242.19
2019-02-04T09:05:12.433Z,102240.45
2019-02-04T09:07:42.309Z,102245.48
2019-02-04T09:10:15.175Z,102240.94
2019-02-04T09:12:45.115Z,102244.47
2019-02-04T09:15:16.353Z,102234.02
2019-02-04T09:17:46.397Z,102242.78
2019-02-04T09:20:16.868Z,102237.44
2019-02-04T09:22:46.771Z,102242.77
2019-02-04T09:25:17.098Z,102238.11
2019-02-04T09:27:47.173Z,102243.19
2019-02-04T09:30:19.304Z,102241.58
2019-02-04T09:32:49.305Z,102241.98
2019-02-04T09:35:20.074Z,102233.74
2019-02-04T09:37:50.227Z,102234.22
2019-02-04T09:40:41.068Z,102230.91
2019-02-04T09:43:11.724Z,102226.23
2019-02-04T09:45:43.127Z,102224.17
2019-02-04T09:48:16.468Z,102229.50
2019-02-04T09:50:49.742Z,102227.13
2019-02-04T09:53:19.798Z,102222.88
2019-02-04T09:55:49.872Z,102226.75
2019-02-04T09:58:19.763Z,102226.80
2019-02-04T10:00:49.622Z,102227.11
2019-02-04T10:03:19.434Z,102221.83
2019-02-04T10:05:49.902Z,102223.70
2019-02-04T10:08:20.354Z,102224.73
2019-02-04T10:10:50.733Z,102224.09
2019-02-04T10:13:20.891Z,102231.73
2019-02-04T10:15:51.886Z,102229.73
2019-02-04T10:18:23.160Z,102227.38
2019-02-04T10:20:53.063Z,102226.14
2019-02-04T10:23:22.954Z,102210.69
2019-02-04T10:25:52.857Z,102216.27
2019-02-04T10:28:22.779Z,102215.47
2019-02-04T10:30:52.806Z,102217.32
2019-02-04T10:33:22.742Z,102204.23
2019-02-04T10:35:52.725Z,102206.09
2019-02-04T10:38:22.614Z,102202.41
2019-02-04T10:40:52.590Z,102201.33
2019-02-04T10:43:22.601Z,102199.36
2019-02-04T10:45:52.832Z,102192.28
2019-02-04T10:48:22.682Z,102190.67
2019-02-04T10:50:52.890Z,102186.72
2019-02-04T10:53:22.859Z,102189.11
2019-02-04T10:55:53.607Z,102197.98
2019-02-04T10:58:23.739Z,102190.12
2019-02-04T11:00:53.589Z,102193.25
2019-02-04T11:03:23.659Z,102183.74
2019-02-04T11:05:53.682Z,102182.49
2019-02-04T11:08:23.635Z,102172.59
2019-02-04T11:10:53.500Z,102171.81
2019-02-04T11:13:25.475Z,102168.78
2019-02-04T11:15:55.369Z,102170.21
2019-02-04T11:18:27.311Z,102169.90
2019-02-04T11:20:59.644Z,102165.05
2019-02-04T11:23:29.864Z,102163.73
2019-02-04T11:26:00.984Z,102159.50
2019-02-04T11:28:31.746Z,102147.83
2019-02-04T11:31:08.347Z,102143.20
2019-02-04T11:33:38.399Z,102144.41
2019-02-04T11:36:08.338Z,102139.50
2019-02-04T11:38:38.810Z,102131.64
2019-02-04T11:41:09.033Z,102138.82
2019-02-04T11:43:39.050Z,102139.84
2019-02-04T11:46:09.201Z,102135.75
2019-02-04T11:48:39.316Z,102129.17
2019-02-04T11:51:10.173Z,102133.36
2019-02-04T11:53:40.241Z,102136.73
2019-02-04T11:56:10.242Z,102139.23
2019-02-04T11:58:40.190Z,102147.70
2019-02-04T12:01:10.265Z,102150.50
2019-02-04T12:03:41.441Z,102146.99
2019-02-04T12:06:11.557Z,102153.24
2019-02-04T12:08:42.155Z,102151.79
2019-02-04T12:11:17.560Z,102155.59
2019-02-04T12:13:47.917Z,102156.59
2019-02-04T12:16:17.995Z,102154.14
2019-02-04T12:18:48.305Z,102156.31
2019-02-04T12:21:21.653Z,102155.37
2019-02-04T12:23:51.999Z,102155.46
2019-02-04T12:26:21.997Z,102155.52
2019-02-04T12:28:52.035Z,102150.28
2019-02-04T12:31:22.478Z,102151.93
2019-02-04T12:33:52.443Z,102146.33
2019-02-04T12:36:23.147Z,102141.05
2019-02-04T12:38:55.285Z,102134.59
2019-02-04T12:41:25.472Z,102131.49
2019-02-04T12:43:55.419Z,102132.58
2019-02-04T12:46:25.458Z,102126.94
2019-02-04T12:48:55.575Z,102124.23
2019-02-04T12:51:33.330Z,102126.45
2019-02-04T12:53:57.801Z,102125.19
2019-02-04T12:56:27.714Z,102124.63
2019-02-04T12:58:57.982Z,102118.88
2019-02-04T13:01:27.927Z,102128.01
2019-02-04T13:03:58.022Z,102120.38
2019-02-04T13:06:28.102Z,102119.62
2019-02-04T13:08:58.055Z,102115.33
2019-02-04T13:11:28.113Z,102117.89
2019-02-04T13:13:58.069Z,102108.94
2019-02-04T13:16:29.624Z,102119.28
2019-02-04T13:18:59.750Z,102112.39
2019-02-04T13:21:30.514Z,102111.63
2019-02-04T13:24:01.773Z,102112.31
2019-02-04T13:26:56.100Z,102106.12
2019-02-04T13:29:27.649Z,102109.16
2019-02-04T13:31:59.365Z,102104.30
2019-02-04T13:34:30.029Z,102108.31
2019-02-04T13:37:00.140Z,102106.38
2019-02-04T13:39:31.466Z,102097.97
2019-02-04T13:42:01.710Z,102100.03
2019-02-04T13:44:31.988Z,102089.02
2019-02-04T13:47:02.077Z,102088.05
2019-02-04T13:49:32.092Z,102085.55
2019-02-04T13:52:02.214Z,102089.22
2019-02-04T13:54:32.169Z,102089.22
2019-02-04T13:57:03.720Z,102087.70
2019-02-04T13:59:33.723Z,102080.52
2019-02-04T14:02:05.331Z,102079.05
2019-02-04T14:04:35.566Z,102077.99
2019-02-04T14:07:05.702Z,102080.93
2019-02-04T14:09:35.678Z,102076.78
2019-02-04T14:12:06.278Z,102079.08
2019-02-04T14:14:38.090Z,102073.58
2019-02-04T14:17:08.106Z,102071.13
2019-02-04T14:19:38.160Z,102064.58
2019-02-04T14:22:09.748Z,102069.34
2019-02-04T14:24:39.772Z,102062.38
2019-02-04T14:27:10.084Z,102063.19
2019-02-04T14:29:42.300Z,102066.25
2019-02-04T14:32:12.493Z,102060.88
2019-02-04T14:34:46.118Z,102060.86
2019-02-04T14:37:17.418Z,102057.06
2019-02-04T14:39:47.581Z,102054.02
2019-02-04T14:42:21.925Z,102056.11
2019-02-04T14:45:33.100Z,102053.09
2019-02-04T14:48:35.590Z,102053.94
2019-02-04T14:51:41.063Z,102053.09
2019-02-04T14:55:06.978Z,102048.62
2019-02-04T14:58:35.809Z,102049.01
2019-02-04T15:01:49.961Z,102043.92
2019-02-04T15:05:09.798Z,102041.39
2019-02-04T15:08:10.884Z,102047.11
2019-02-04T15:11:05.471Z,102042.12
2019-02-04T15:14:27.051Z,102035.74
2019-02-04T15:17:33.399Z,102031.91
2019-02-04T15:20:30.487Z,102025.17
2019-02-04T15:23:43.209Z,102022.45
2019-02-04T15:26:52.606Z,102021.60
2019-02-04T15:29:46.786Z,102021.52
2019-02-04T15:32:38.703Z,102016.58
2019-02-04T15:35:42.465Z,102008.30
2019-02-04T15:38:38.838Z,102008.99
2019-02-04T15:41:49.453Z,102013.00
2019-02-04T15:44:55.811Z,102006.59
2019-02-04T15:47:53.151Z,102007.50
2019-02-04T15:51:05.921Z,102008.17
2019-02-04T15:53:35.804Z,102000.26
2019-02-04T15:56:07.413Z,101997.23
2019-02-04T15:58:49.994Z,101995.64
2019-02-04T16:01:20.285Z,101993.23
2019-02-04T16:03:52.983Z,101986.17
2019-02-04T16:06:26.246Z,101990.92
2019-02-04T16:09:08.932Z,101985.76
2019-02-04T16:11:40.333Z,101977.61
2019-02-04T16:14:16.148Z,101973.79
2019-02-04T16:17:04.471Z,101981.17
2019-02-04T16:19:30.140Z,101976.37
2019-02-04T16:22:15.145Z,101984.29
2019-02-04T16:24:41.950Z,101986.13
2019-02-04T16:28:07.614Z,101977.79
2019-02-04T16:30:41.743Z,101976.41
2019-02-04T16:33:15.631Z,101977.73
2019-02-04T16:35:45.696Z,101979.57
2019-02-04T16:38:15.765Z,101986.52
2019-02-04T16:40:47.186Z,101978.16
2019-02-04T16:43:17.737Z,101979.18
2019-02-04T16:45:47.728Z,101987.11
2019-02-04T16:48:17.666Z,101985.50
2019-02-04T16:51:03.450Z,101991.16
2019-02-04T16:53:21.630Z,101982.28
2019-02-04T16:55:52.318Z,101984.19
2019-02-04T16:58:22.593Z,101987.35
2019-02-04T17:00:53.038Z,101988.00
2019-02-04T17:03:23.035Z,101984.91
2019-02-04T17:05:53.138Z,101991.09
2019-02-04T17:08:23.187Z,101990.13
2019-02-04T17:10:53.374Z,101994.69
2019-02-04T17:13:23.292Z,101995.56
2019-02-04T17:15:53.247Z,101998.97
2019-02-04T17:18:23.350Z,102003.81
2019-02-04T17:21:04.354Z,102001.80
2019-02-04T17:23:37.475Z,102001.39
2019-02-04T17:26:07.474Z,102003.98
2019-02-04T17:28:37.629Z,102003.64
2019-02-04T17:31:07.596Z,101995.34
2019-02-04T17:33:37.674Z,101989.00
2019-02-04T17:36:08.126Z,101980.88
2019-02-04T17:38:38.088Z,101981.29
2019-02-04T17:41:08.128Z,101989.67
2019-02-04T17:43:38.021Z,101982.51
2019-02-04T17:46:09.558Z,101977.01
2019-02-04T17:48:41.511Z,101969.84
2019-02-04T17:51:36.176Z,101972.34
2019-02-04T17:54:07.195Z,101963.34
2019-02-04T17:56:47.069Z,101970.28
2019-02-04T17:59:17.521Z,101963.34
2019-02-04T18:01:50.523Z,101952.16
2019-02-04T18:04:21.009Z,101955.53
2019-02-04T18:06:51.799Z,101954.38
2019-02-04T18:09:21.952Z,101948.84
2019-02-04T18:11:51.981Z,101946.15
2019-02-04T18:14:23.635Z,101948.24
2019-02-04T18:16:53.679Z,101947.41
2019-02-04T18:19:23.609Z,101946.59
2019-02-04T18:21:53.627Z,101934.83
2019-02-04T18:24:23.834Z,101937.58
2019-02-04T18:26:54.462Z,101940.61
2019-02-04T18:29:24.545Z,101929.20
2019-02-04T18:31:55.219Z,101943.15
2019-02-04T18:34:26.152Z,101948.93
2019-02-04T18:36:56.465Z,101948.20
2019-02-04T18:39:26.625Z,101944.73
2019-02-04T18:41:57.135Z,101944.45
2019-02-04T18:44:27.256Z,101948.74
2019-02-04T18:46:57.113Z,101949.24
2019-02-04T18:49:27.165Z,101945.59
2019-02-04T18:51:57.181Z,101952.70
2019-02-04T18:54:27.783Z,101943.80
2019-02-04T18:56:57.843Z,101946.53
2019-02-04T18:59:27.575Z,101942.42
2019-02-04T19:01:57.655Z,101939.50
2019-02-04T19:04:27.788Z,101941.52
2019-02-04T19:06:57.669Z,101941.95
2019-02-04T19:09:27.728Z,101940.32
2019-02-04T19:11:57.741Z,101940.64
2019-02-04T19:14:28.000Z,101942.89
2019-02-04T19:16:58.061Z,101939.48
2019-02-04T19:19:32.059Z,101940.81
2019-02-04T19:22:02.253Z,101934.22
2019-02-04T19:24:32.400Z,101933.34
2019-02-04T19:27:02.604Z,101921.35
2019-02-04T19:29:33.055Z,101931.07
2019-02-04T19:32:03.689Z,101941.16
2019-02-04T19:34:33.740Z,101924.30
2019-02-04T19:37:06.519Z,101919.89
2019-02-04T19:39:36.997Z,101913.76
2019-02-04T19:42:09.249Z,101909.84
2019-02-04T19:44:39.869Z,101911.45
2019-02-04T19:47:09.831Z,101911.81
2019-02-04T19:49:39.927Z,101906.55
2019-02-04T19:52:09.895Z,101904.06
2019-02-04T19:54:41.066Z,101905.41
2019-02-04T19:57:11.162Z,101907.11
2019-02-04T19:59:46.867Z,101897.39
2019-02-04T20:02:17.398Z,101901.00
2019-02-04T20:04:47.501Z,101894.87
2019-02-04T20:07:18.338Z,101884.13
2019-02-04T20:09:50.178Z,101887.23
2019-02-04T20:12:21.933Z,101884.84
2019-02-04T20:14:52.292Z,101893.12
2019-02-04T20:17:22.448Z,101892.30
2019-02-04T20:19:55.312Z,101888.80
2019-02-04T20:22:28.266Z,101885.22
2019-02-04T20:24:58.624Z,101870.22
2019-02-04T20:27:31.942Z,101871.75
2019-02-04T20:30:03.705Z,101872.48
2019-02-04T20:32:38.231Z,101874.66
2019-02-04T20:35:10.106Z,101873.39
2019-02-04T20:37:40.624Z,101861.46
2019-02-04T20:40:12.111Z,101873.06
2019-02-04T20:42:42.576Z,101873.66
2019-02-04T20:45:13.228Z,101879.84
2019-02-04T20:47:43.805Z,101879.96
2019-02-04T20:50:17.632Z,101877.30
2019-02-04T20:52:47.840Z,101885.22
2019-02-04T20:55:19.557Z,101889.12
2019-02-04T20:57:50.296Z,101890.91
2019-02-04T21:00:22.472Z,101894.41
2019-02-04T21:02:52.503Z,101898.44
2019-02-04T21:05:22.778Z,101898.47
2019-02-04T21:07:52.918Z,101907.71
2019-02-04T21:10:23.855Z,101908.02
2019-02-04T21:12:56.887Z,101917.78
2019-02-04T21:15:27.068Z,101915.25
2019-02-04T21:17:57.134Z,101920.53
2019-02-04T21:20:28.886Z,101909.72
2019-02-04T21:22:58.924Z,101913.58
2019-02-04T21:25:28.995Z,101918.72
2019-02-04T21:27:59.326Z,101916.41
2019-02-04T21:30:31.949Z,101921.73
2019-02-04T21:33:02.150Z,101927.27
2019-02-04T21:35:32.368Z,101920.63
2019-02-04T21:38:02.566Z,101916.56
2019-02-04T21:40:33.121Z,101914.84
2019-02-04T21:43:03.084Z,101917.67
2019-02-04T21:45:33.260Z,101921.73
2019-02-04T21:48:03.373Z,101927.33
2019-02-04T21:50:36.165Z,101920.80
2019-02-04T21:53:06.434Z,101926.87
2019-02-04T21:55:36.486Z,101925.61
2019-02-04T21:58:06.798Z,101926.83
2019-02-04T22:00:38.610Z,101928.11
2019-02-04T22:03:08.650Z,101925.02
2019-02-04T22:05:38.590Z,101923.16
2019-02-04T22:08:08.637Z,101926.08
2019-02-04T22:10:40.729Z,101926.74
2019-02-04T22:13:12.803Z,101926.66
2019-02-04T22:15:42.640Z,101927.39
2019-02-04T22:18:12.779Z,101928.94
2019-02-04T22:20:42.948Z,101922.06
2019-02-04T22:23:12.917Z,101921.73
2019-02-04T22:25:43.146Z,101911.63
2019-02-04T22:28:13.056Z,101915.30
2019-02-04T22:30:43.255Z,101921.41
2019-02-04T22:33:13.182Z,101925.37
2019-02-04T22:35:43.089Z,101926.16
2019-02-04T22:38:13.030Z,101918.48
2019-02-04T22:40:42.860Z,101928.18
2019-02-04T22:43:12.978Z,101929.49
2019-02-04T22:45:45.864Z,101933.81
2019-02-04T22:48:15.830Z,101936.06
2019-02-04T22:50:45.951Z,101935.12
2019-02-04T22:53:16.025Z,101930.95
2019-02-04T22:55:47.009Z,101930.66
2019-02-04T22:58:17.000Z,101932.64
2019-02-04T23:01:23.638Z,101931.01
2019-02-04T23:03:53.552Z,101933.64
2019-02-04T23:06:23.488Z,101930.12
2019-02-04T23:08:53.467Z,101929.03
2019-02-04T23:11:23.817Z,101929.64
2019-02-04T23:13:54.458Z,101932.35
2019-02-04T23:16:24.803Z,101927.47
2019-02-04T23:18:54.922Z,101926.95
2019-02-04T23:21:24.896Z,101919.22
2019-02-04T23:23:56.413Z,101922.66
2019-02-04T23:26:26.423Z,101926.31
2019-02-04T23:28:56.376Z,101921.91
2019-02-04T23:31:27.723Z,101914.08
2019-02-04T23:33:57.747Z,101906.31
2019-02-04T23:36:27.643Z,101906.48
2019-02-04T23:38:57.585Z,101903.87
2019-02-04T23:41:29.283Z,101910.41
2019-02-04T23:43:59.167Z,101918.58
2019-02-04T23:46:30.109Z,101922.08
2019-02-04T23:49:00.093Z,101923.70
2019-02-04T23:51:30.069Z,101913.58
2019-02-04T23:53:59.961Z,101911.13
2019-02-04T23:56:29.937Z,101911.63
2019-02-04T23:58:59.895Z,101915.36
